sensor_id;sensor_type;location;lat;lon;timestamp;pressure;altitude;pressure_sealevel;temperature
63689;BMP280;54895;40.928;14.480;2023-02-24T00:02:01;101212.63;;;15.03
63689;BMP280;54895;40.928;14.480;2023-02-24T00:04:35;101197.19;;;14.88
63689;BMP280;54895;40.928;14.480;2023-02-24T00:07:03;101215.81;;;14.94
63689;BMP280;54895;40.928;14.480;2023-02-24T00:09:31;101209.69;;;14.86
63689;BMP280;54895;40.928;14.480;2023-02-24T00:12:01;101185.09;;;14.67
63689;BMP280;54895;40.928;14.480;2023-02-24T00:14:33;101213.97;;;14.89
63689;BMP280;54895;40.928;14.480;2023-02-24T00:17:00;101206.25;;;14.78
63689;BMP280;54895;40.928;14.480;2023-02-24T00:19:28;101224.88;;;14.91
63689;BMP280;54895;40.928;14.480;2023-02-24T00:21:57;101211.06;;;14.79
63689;BMP280;54895;40.928;14.480;2023-02-24T00:24:29;101228.94;;;14.84
63689;BMP280;54895;40.928;14.480;2023-02-24T00:26:59;101226.00;;;14.67
63689;BMP280;54895;40.928;14.480;2023-02-24T00:29:28;101219.38;;;14.68
63689;BMP280;54895;40.928;14.480;2023-02-24T00:31:56;101237.19;;;14.86
63689;BMP280;54895;40.928;14.480;2023-02-24T00:34:27;101261.22;;;14.99
63689;BMP280;54895;40.928;14.480;2023-02-24T00:36:58;101208.72;;;14.48
63689;BMP280;54895;40.928;14.480;2023-02-24T00:39:25;101215.75;;;14.58
63689;BMP280;54895;40.928;14.480;2023-02-24T00:41:58;101214.50;;;14.59
63689;BMP280;54895;40.928;14.480;2023-02-24T00:44:37;101174.22;;;14.16
63689;BMP280;54895;40.928;14.480;2023-02-24T00:47:06;101147.81;;;14.20
63689;BMP280;54895;40.928;14.480;2023-02-24T00:49:34;101128.78;;;14.03
63689;BMP280;54895;40.928;14.480;2023-02-24T00:52:02;101094.44;;;13.74
63689;BMP280;54895;40.928;14.480;2023-02-24T00:54:36;101096.16;;;13.84
63689;BMP280;54895;40.928;14.480;2023-02-24T00:57:02;101096.94;;;13.92
63689;BMP280;54895;40.928;14.480;2023-02-24T00:59:29;101101.28;;;14.03
63689;BMP280;54895;40.928;14.480;2023-02-24T01:01:55;101128.28;;;14.33
63689;BMP280;54895;40.928;14.480;2023-02-24T01:04:22;101134.00;;;14.29
63689;BMP280;54895;40.928;14.480;2023-02-24T01:06:51;101129.34;;;14.30
63689;BMP280;54895;40.928;14.480;2023-02-24T01:09:19;101135.78;;;14.34
63689;BMP280;54895;40.928;14.480;2023-02-24T01:11:47;101159.75;;;14.40
63689;BMP280;54895;40.928;14.480;2023-02-24T01:14:34;101150.22;;;14.31
63689;BMP280;54895;40.928;14.480;2023-02-24T01:17:01;101184.56;;;14.68
63689;BMP280;54895;40.928;14.480;2023-02-24T01:19:30;101171.75;;;14.46
63689;BMP280;54895;40.928;14.480;2023-02-24T01:22:01;101167.84;;;14.47
63689;BMP280;54895;40.928;14.480;2023-02-24T01:24:32;101171.19;;;14.40
63689;BMP280;54895;40.928;14.480;2023-02-24T01:26:59;101148.09;;;14.09
63689;BMP280;54895;40.928;14.480;2023-02-24T01:29:27;101134.53;;;14.07
63689;BMP280;54895;40.928;14.480;2023-02-24T01:31:54;101138.25;;;14.04
63689;BMP280;54895;40.928;14.480;2023-02-24T01:34:27;101149.16;;;14.06
63689;BMP280;54895;40.928;14.480;2023-02-24T01:36:56;101127.22;;;13.87
63689;BMP280;54895;40.928;14.480;2023-02-24T01:39:26;101131.59;;;13.98
63689;BMP280;54895;40.928;14.480;2023-02-24T01:41:53;101157.94;;;14.14
63689;BMP280;54895;40.928;14.480;2023-02-24T01:46:52;101174.22;;;14.16
63689;BMP280;54895;40.928;14.480;2023-02-24T01:52:03;101171.59;;;14.03
63689;BMP280;54895;40.928;14.480;2023-02-24T01:54:36;101169.25;;;14.00
63689;BMP280;54895;40.928;14.480;2023-02-24T01:57:09;101173.25;;;14.06
63689;BMP280;54895;40.928;14.480;2023-02-24T01:59:36;101166.66;;;14.07
63689;BMP280;54895;40.928;14.480;2023-02-24T02:02:05;101159.69;;;13.91
63689;BMP280;54895;40.928;14.480;2023-02-24T02:04:47;101153.97;;;13.87
63689;BMP280;54895;40.928;14.480;2023-02-24T02:07:17;101135.69;;;13.58
63689;BMP280;54895;40.928;14.480;2023-02-24T02:09:45;101121.97;;;13.61
63689;BMP280;54895;40.928;14.480;2023-02-24T02:12:13;101137.63;;;13.57
63689;BMP280;54895;40.928;14.480;2023-02-24T02:14:43;101134.66;;;13.48
63689;BMP280;54895;40.928;14.480;2023-02-24T02:17:53;101127.31;;;13.61
63689;BMP280;54895;40.928;14.480;2023-02-24T02:36:55;101103.56;;;13.37
63689;BMP280;54895;40.928;14.480;2023-02-24T02:45:08;101066.75;;;12.97
63689;BMP280;54895;40.928;14.480;2023-02-24T02:48:04;101072.50;;;13.14
63689;BMP280;54895;40.928;14.480;2023-02-24T02:53:05;101075.22;;;13.21
63689;BMP280;54895;40.928;14.480;2023-02-24T02:55:45;101100.66;;;13.35
63689;BMP280;54895;40.928;14.480;2023-02-24T02:58:16;101101.09;;;13.39
63689;BMP280;54895;40.928;14.480;2023-02-24T03:00:57;101110.34;;;13.38
63689;BMP280;54895;40.928;14.480;2023-02-24T03:03:34;101098.94;;;13.38
63689;BMP280;54895;40.928;14.480;2023-02-24T03:06:14;101113.09;;;13.46
63689;BMP280;54895;40.928;14.480;2023-02-24T03:08:53;101083.72;;;13.00
63689;BMP280;54895;40.928;14.480;2023-02-24T03:11:23;101053.56;;;12.66
63689;BMP280;54895;40.928;14.480;2023-02-24T03:13:53;101047.59;;;12.73
63689;BMP280;54895;40.928;14.480;2023-02-24T03:16:23;101061.91;;;13.09
63689;BMP280;54895;40.928;14.480;2023-02-24T03:19:02;101108.59;;;13.41
63689;BMP280;54895;40.928;14.480;2023-02-24T03:21:33;101147.47;;;13.29
63689;BMP280;54895;40.928;14.480;2023-02-24T03:24:02;101161.56;;;13.29
63689;BMP280;54895;40.928;14.480;2023-02-24T03:29:22;101199.78;;;13.37
63689;BMP280;54895;40.928;14.480;2023-02-24T03:31:53;101155.31;;;13.01
63689;BMP280;54895;40.928;14.480;2023-02-24T03:37:12;101131.06;;;12.86
63689;BMP280;54895;40.928;14.480;2023-02-24T03:39:39;101128.09;;;12.77
63689;BMP280;54895;40.928;14.480;2023-02-24T03:42:17;101121.75;;;12.80
63689;BMP280;54895;40.928;14.480;2023-02-24T03:44:44;101131.78;;;12.87
63689;BMP280;54895;40.928;14.480;2023-02-24T03:47:13;101107.53;;;12.85
63689;BMP280;54895;40.928;14.480;2023-02-24T03:49:42;101143.41;;;13.15
63689;BMP280;54895;40.928;14.480;2023-02-24T03:55:24;101120.50;;;12.68
63689;BMP280;54895;40.928;14.480;2023-02-24T03:58:20;101123.56;;;12.85
63689;BMP280;54895;40.928;14.480;2023-02-24T04:01:14;101142.69;;;13.02
63689;BMP280;54895;40.928;14.480;2023-02-24T04:06:55;101141.75;;;12.86
63689;BMP280;54895;40.928;14.480;2023-02-24T04:12:06;101147.94;;;12.81
63689;BMP280;54895;40.928;14.480;2023-02-24T04:14:49;101133.44;;;12.77
63689;BMP280;54895;40.928;14.480;2023-02-24T04:17:22;101168.19;;;12.90
63689;BMP280;54895;40.928;14.480;2023-02-24T04:19:56;101134.56;;;12.68
63689;BMP280;54895;40.928;14.480;2023-02-24T04:22:25;101123.03;;;12.60
63689;BMP280;54895;40.928;14.480;2023-02-24T04:25:01;101100.97;;;12.47
63689;BMP280;54895;40.928;14.480;2023-02-24T04:28:00;101123.16;;;12.81
63689;BMP280;54895;40.928;14.480;2023-02-24T04:30:42;101140.63;;;12.82
63689;BMP280;54895;40.928;14.480;2023-02-24T04:33:11;101128.91;;;12.85
63689;BMP280;54895;40.928;14.480;2023-02-24T04:35:38;101142.69;;;12.76
63689;BMP280;54895;40.928;14.480;2023-02-24T04:38:06;101136.28;;;12.79
63689;BMP280;54895;40.928;14.480;2023-02-24T04:40:32;101122.34;;;12.73
63689;BMP280;54895;40.928;14.480;2023-02-24T04:42:59;101080.25;;;12.53
63689;BMP280;54895;40.928;14.480;2023-02-24T04:45:27;101102.53;;;12.68
63689;BMP280;54895;40.928;14.480;2023-02-24T04:47:57;101092.75;;;12.58
63689;BMP280;54895;40.928;14.480;2023-02-24T04:50:29;101065.94;;;12.11
63689;BMP280;54895;40.928;14.480;2023-02-24T04:53:05;101050.88;;;12.27
63689;BMP280;54895;40.928;14.480;2023-02-24T04:55:36;101072.00;;;12.38
63689;BMP280;54895;40.928;14.480;2023-02-24T04:58:09;101085.56;;;12.40
63689;BMP280;54895;40.928;14.480;2023-02-24T05:00:36;101089.19;;;12.42
63689;BMP280;54895;40.928;14.480;2023-02-24T05:03:05;101107.75;;;12.48
63689;BMP280;54895;40.928;14.480;2023-02-24T05:05:33;101120.72;;;12.57
63689;BMP280;54895;40.928;14.480;2023-02-24T05:08:05;101147.81;;;12.61
63689;BMP280;54895;40.928;14.480;2023-02-24T05:10:41;101145.41;;;12.57
63689;BMP280;54895;40.928;14.480;2023-02-24T05:13:20;101147.81;;;12.61
63689;BMP280;54895;40.928;14.480;2023-02-24T05:15:47;101122.53;;;12.62
63689;BMP280;54895;40.928;14.480;2023-02-24T05:18:15;101102.03;;;12.57
63689;BMP280;54895;40.928;14.480;2023-02-24T05:20:45;101108.28;;;12.59
63689;BMP280;54895;40.928;14.480;2023-02-24T05:23:34;101114.22;;;12.52
63689;BMP280;54895;40.928;14.480;2023-02-24T05:26:03;101104.28;;;12.53
63689;BMP280;54895;40.928;14.480;2023-02-24T05:28:39;101120.19;;;12.71
63689;BMP280;54895;40.928;14.480;2023-02-24T05:31:20;101169.78;;;13.06
63689;BMP280;54895;40.928;14.480;2023-02-24T05:33:51;101202.34;;;13.17
63689;BMP280;54895;40.928;14.480;2023-02-24T05:36:24;101205.97;;;13.07
63689;BMP280;54895;40.928;14.480;2023-02-24T05:38:53;101177.91;;;12.74
63689;BMP280;54895;40.928;14.480;2023-02-24T05:41:37;101164.44;;;12.54
63689;BMP280;54895;40.928;14.480;2023-02-24T05:44:07;101132.75;;;12.32
63689;BMP280;54895;40.928;14.480;2023-02-24T05:46:38;101139.56;;;12.33
63689;BMP280;54895;40.928;14.480;2023-02-24T05:49:07;101117.78;;;12.29
63689;BMP280;54895;40.928;14.480;2023-02-24T05:51:37;101081.41;;;12.00
63689;BMP280;54895;40.928;14.480;2023-02-24T05:54:05;101107.94;;;12.37
63689;BMP280;54895;40.928;14.480;2023-02-24T05:56:34;101121.38;;;12.57
63689;BMP280;54895;40.928;14.480;2023-02-24T05:59:03;101137.53;;;12.65
63689;BMP280;54895;40.928;14.480;2023-02-24T06:01:34;101143.72;;;12.73
63689;BMP280;54895;40.928;14.480;2023-02-24T06:04:05;101148.31;;;12.72
63689;BMP280;54895;40.928;14.480;2023-02-24T06:06:37;101149.88;;;12.68
63689;BMP280;54895;40.928;14.480;2023-02-24T06:09:06;101141.13;;;12.41
63689;BMP280;54895;40.928;14.480;2023-02-24T06:11:41;101123.94;;;12.37
63689;BMP280;54895;40.928;14.480;2023-02-24T06:14:11;101112.50;;;12.23
63689;BMP280;54895;40.928;14.480;2023-02-24T06:16:39;101113.38;;;12.57
63689;BMP280;54895;40.928;14.480;2023-02-24T06:19:07;101132.81;;;12.84
63689;BMP280;54895;40.928;14.480;2023-02-24T06:21:37;101165.06;;;13.12
63689;BMP280;54895;40.928;14.480;2023-02-24T06:24:13;101158.91;;;13.17
63689;BMP280;54895;40.928;14.480;2023-02-24T06:26:41;101167.94;;;13.27
63689;BMP280;54895;40.928;14.480;2023-02-24T06:29:16;101179.94;;;13.46
63689;BMP280;54895;40.928;14.480;2023-02-24T06:31:43;101192.53;;;13.58
63689;BMP280;54895;40.928;14.480;2023-02-24T06:34:10;101198.88;;;13.68
63689;BMP280;54895;40.928;14.480;2023-02-24T06:36:39;101190.88;;;13.55
63689;BMP280;54895;40.928;14.480;2023-02-24T06:39:05;101202.94;;;13.82
63689;BMP280;54895;40.928;14.480;2023-02-24T06:41:38;101231.28;;;13.98
63689;BMP280;54895;40.928;14.480;2023-02-24T06:44:05;101227.97;;;14.05
63689;BMP280;54895;40.928;14.480;2023-02-24T06:46:32;101225.50;;;14.07
63689;BMP280;54895;40.928;14.480;2023-02-24T06:48:58;101237.03;;;14.02
63689;BMP280;54895;40.928;14.480;2023-02-24T06:51:25;101238.81;;;14.20
63689;BMP280;54895;40.928;14.480;2023-02-24T06:53:56;101237.53;;;14.34
63689;BMP280;54895;40.928;14.480;2023-02-24T06:56:25;101239.41;;;14.47
63689;BMP280;54895;40.928;14.480;2023-02-24T06:59:04;101216.47;;;14.38
63689;BMP280;54895;40.928;14.480;2023-02-24T07:02:02;101252.72;;;14.60
63689;BMP280;54895;40.928;14.480;2023-02-24T07:04:29;101244.63;;;14.52
63689;BMP280;54895;40.928;14.480;2023-02-24T07:06:57;101246.38;;;14.70
63689;BMP280;54895;40.928;14.480;2023-02-24T07:09:28;101248.91;;;14.76
63689;BMP280;54895;40.928;14.480;2023-02-24T07:11:55;101248.97;;;14.83
63689;BMP280;54895;40.928;14.480;2023-02-24T07:14:25;101249.09;;;15.06
63689;BMP280;54895;40.928;14.480;2023-02-24T07:16:52;101249.34;;;15.23
63689;BMP280;54895;40.928;14.480;2023-02-24T07:19:25;101272.63;;;15.78
63689;BMP280;54895;40.928;14.480;2023-02-24T07:21:57;101271.75;;;15.83
63689;BMP280;54895;40.928;14.480;2023-02-24T07:24:29;101266.00;;;15.79
63689;BMP280;54895;40.928;14.480;2023-02-24T07:29:30;101269.19;;;15.63
63689;BMP280;54895;40.928;14.480;2023-02-24T07:32:02;101273.25;;;15.56
63689;BMP280;54895;40.928;14.480;2023-02-24T07:34:31;101267.97;;;15.71
63689;BMP280;54895;40.928;14.480;2023-02-24T07:36:59;101251.53;;;15.75
63689;BMP280;54895;40.928;14.480;2023-02-24T07:39:31;101246.88;;;15.75
63689;BMP280;54895;40.928;14.480;2023-02-24T07:41:57;101244.41;;;16.00
63689;BMP280;54895;40.928;14.480;2023-02-24T07:44:25;101250.53;;;16.23
63689;BMP280;54895;40.928;14.480;2023-02-24T07:46:51;101243.56;;;16.27
63689;BMP280;54895;40.928;14.480;2023-02-24T07:49:22;101238.34;;;16.44
63689;BMP280;54895;40.928;14.480;2023-02-24T07:51:53;101246.00;;;16.55
63689;BMP280;54895;40.928;14.480;2023-02-24T07:54:24;101235.09;;;16.68
63689;BMP280;54895;40.928;14.480;2023-02-24T07:56:52;101233.63;;;16.82
63689;BMP280;54895;40.928;14.480;2023-02-24T07:59:30;101247.25;;;16.69
63689;BMP280;54895;40.928;14.480;2023-02-24T08:01:57;101241.47;;;16.95
63689;BMP280;54895;40.928;14.480;2023-02-24T08:04:27;101245.66;;;17.20
63689;BMP280;54895;40.928;14.480;2023-02-24T08:06:56;101257.41;;;17.40
63689;BMP280;54895;40.928;14.480;2023-02-24T08:09:26;101220.25;;;17.14
63689;BMP280;54895;40.928;14.480;2023-02-24T08:12:18;101246.84;;;17.34
63689;BMP280;54895;40.928;14.480;2023-02-24T08:14:50;101240.78;;;17.34
63689;BMP280;54895;40.928;14.480;2023-02-24T08:17:22;101239.91;;;17.63
63689;BMP280;54895;40.928;14.480;2023-02-24T08:19:52;101244.19;;;17.91
63689;BMP280;54895;40.928;14.480;2023-02-24T08:22:41;101229.97;;;17.02
63689;BMP280;54895;40.928;14.480;2023-02-24T08:25:18;101229.84;;;17.32
63689;BMP280;54895;40.928;14.480;2023-02-24T08:27:50;101247.38;;;17.97
63689;BMP280;54895;40.928;14.480;2023-02-24T08:30:23;101248.59;;;17.79
63689;BMP280;54895;40.928;14.480;2023-02-24T08:32:51;101222.63;;;17.42
63689;BMP280;54895;40.928;14.480;2023-02-24T08:35:27;101232.94;;;17.53
63689;BMP280;54895;40.928;14.480;2023-02-24T08:38:17;101229.59;;;17.77
63689;BMP280;54895;40.928;14.480;2023-02-24T08:40:49;101232.09;;;18.24
63689;BMP280;54895;40.928;14.480;2023-02-24T08:43:26;101238.59;;;18.55
63689;BMP280;54895;40.928;14.480;2023-02-24T08:45:55;101247.97;;;18.87
63689;BMP280;54895;40.928;14.480;2023-02-24T08:48:28;101248.91;;;18.49
63689;BMP280;54895;40.928;14.480;2023-02-24T08:51:05;101252.09;;;18.55
63689;BMP280;54895;40.928;14.480;2023-02-24T08:53:32;101251.00;;;18.41
63689;BMP280;54895;40.928;14.480;2023-02-24T08:56:00;101252.75;;;17.97
63689;BMP280;54895;40.928;14.480;2023-02-24T08:58:35;101241.47;;;17.74
63689;BMP280;54895;40.928;14.480;2023-02-24T09:01:11;101250.88;;;18.07
63689;BMP280;54895;40.928;14.480;2023-02-24T09:03:45;101247.66;;;18.50
63689;BMP280;54895;40.928;14.480;2023-02-24T09:06:15;101249.88;;;18.77
63689;BMP280;54895;40.928;14.480;2023-02-24T09:08:44;101263.66;;;18.98
63689;BMP280;54895;40.928;14.480;2023-02-24T09:11:14;101273.41;;;18.60
63689;BMP280;54895;40.928;14.480;2023-02-24T09:13:44;101267.78;;;18.66
63689;BMP280;54895;40.928;14.480;2023-02-24T09:16:18;101271.75;;;18.81
63689;BMP280;54895;40.928;14.480;2023-02-24T09:18:45;101272.94;;;18.71
63689;BMP280;54895;40.928;14.480;2023-02-24T09:21:34;101265.31;;;18.77
63689;BMP280;54895;40.928;14.480;2023-02-24T09:24:31;101270.44;;;18.99
63689;BMP280;54895;40.928;14.480;2023-02-24T09:26:57;101260.69;;;19.04
63689;BMP280;54895;40.928;14.480;2023-02-24T09:29:27;101278.88;;;19.20
63689;BMP280;54895;40.928;14.480;2023-02-24T09:32:00;101263.03;;;18.90
63689;BMP280;54895;40.928;14.480;2023-02-24T09:34:38;101277.06;;;19.06
63689;BMP280;54895;40.928;14.480;2023-02-24T09:37:11;101267.41;;;19.12
63689;BMP280;54895;40.928;14.480;2023-02-24T09:39:53;101260.41;;;19.26
63689;BMP280;54895;40.928;14.480;2023-02-24T09:42:26;101275.72;;;19.41
63689;BMP280;54895;40.928;14.480;2023-02-24T09:48:37;101276.78;;;19.55
63689;BMP280;54895;40.928;14.480;2023-02-24T09:51:11;101277.84;;;19.42
63689;BMP280;54895;40.928;14.480;2023-02-24T09:53:49;101284.56;;;19.24
63689;BMP280;54895;40.928;14.480;2023-02-24T09:56:35;101286.31;;;19.29
63689;BMP280;54895;40.928;14.480;2023-02-24T10:07:48;101289.13;;;19.94
63689;BMP280;54895;40.928;14.480;2023-02-24T10:10:29;101294.00;;;19.95
63689;BMP280;54895;40.928;14.480;2023-02-24T10:15:44;101297.72;;;19.73
63689;BMP280;54895;40.928;14.480;2023-02-24T10:21:23;101303.66;;;19.98
63689;BMP280;54895;40.928;14.480;2023-02-24T10:26:47;101301.53;;;20.06
63689;BMP280;54895;40.928;14.480;2023-02-24T10:32:17;101292.81;;;21.00
63689;BMP280;54895;40.928;14.480;2023-02-24T10:34:50;101290.66;;;21.58
63689;BMP280;54895;40.928;14.480;2023-02-24T10:37:19;101285.16;;;21.37
63689;BMP280;54895;40.928;14.480;2023-02-24T10:39:49;101274.31;;;21.37
63689;BMP280;54895;40.928;14.480;2023-02-24T10:42:30;101273.19;;;21.40
63689;BMP280;54895;40.928;14.480;2023-02-24T10:48:51;101264.13;;;21.87
63689;BMP280;54895;40.928;14.480;2023-02-24T10:51:21;101252.78;;;21.79
63689;BMP280;54895;40.928;14.480;2023-02-24T10:56:48;101236.25;;;21.75
63689;BMP280;54895;40.928;14.480;2023-02-24T10:59:48;101237.69;;;21.76
63689;BMP280;54895;40.928;14.480;2023-02-24T11:02:53;101258.44;;;21.83
63689;BMP280;54895;40.928;14.480;2023-02-24T11:05:43;101248.94;;;21.82
63689;BMP280;54895;40.928;14.480;2023-02-24T11:08:34;101243.00;;;21.64
63689;BMP280;54895;40.928;14.480;2023-02-24T11:11:15;101241.41;;;21.71
63689;BMP280;54895;40.928;14.480;2023-02-24T11:13:52;101223.22;;;21.83
63689;BMP280;54895;40.928;14.480;2023-02-24T11:19:32;101215.78;;;22.25
63689;BMP280;54895;40.928;14.480;2023-02-24T11:22:01;101194.69;;;22.90
63689;BMP280;54895;40.928;14.480;2023-02-24T11:24:28;101200.72;;;23.46
63689;BMP280;54895;40.928;14.480;2023-02-24T11:26:56;101199.34;;;23.81
63689;BMP280;54895;40.928;14.480;2023-02-24T11:37:40;101171.56;;;23.83
63689;BMP280;54895;40.928;14.480;2023-02-24T11:40:18;101171.94;;;23.77
63689;BMP280;54895;40.928;14.480;2023-02-24T11:43:15;101180.78;;;23.30
63689;BMP280;54895;40.928;14.480;2023-02-24T11:48:44;101169.63;;;24.35
63689;BMP280;54895;40.928;14.480;2023-02-24T11:51:15;101167.31;;;24.68
63689;BMP280;54895;40.928;14.480;2023-02-24T11:53:59;101173.56;;;24.98
63689;BMP280;54895;40.928;14.480;2023-02-24T11:56:37;101174.78;;;24.68
63689;BMP280;54895;40.928;14.480;2023-02-24T11:59:16;101164.06;;;24.45
63689;BMP280;54895;40.928;14.480;2023-02-24T12:05:08;101145.94;;;24.90
63689;BMP280;54895;40.928;14.480;2023-02-24T12:07:40;101147.56;;;24.95
63689;BMP280;54895;40.928;14.480;2023-02-24T12:10:18;101145.81;;;24.09
63689;BMP280;54895;40.928;14.480;2023-02-24T12:13:11;101135.34;;;24.17
63689;BMP280;54895;40.928;14.480;2023-02-24T12:18:24;101123.97;;;24.86
63689;BMP280;54895;40.928;14.480;2023-02-24T12:21:09;101114.88;;;24.95
63689;BMP280;54895;40.928;14.480;2023-02-24T12:23:40;101115.16;;;24.47
63689;BMP280;54895;40.928;14.480;2023-02-24T12:31:35;101114.72;;;25.33
63689;BMP280;54895;40.928;14.480;2023-02-24T12:34:25;101087.88;;;24.99
63689;BMP280;54895;40.928;14.480;2023-02-24T12:37:41;101096.09;;;24.20
63689;BMP280;54895;40.928;14.480;2023-02-24T12:42:50;101083.78;;;25.13
63689;BMP280;54895;40.928;14.480;2023-02-24T12:50:51;101065.53;;;26.04
63689;BMP280;54895;40.928;14.480;2023-02-24T12:53:26;101051.00;;;26.15
63689;BMP280;54895;40.928;14.480;2023-02-24T12:56:05;101061.38;;;26.34
63689;BMP280;54895;40.928;14.480;2023-02-24T12:58:38;101042.72;;;26.13
63689;BMP280;54895;40.928;14.480;2023-02-24T13:04:13;101053.34;;;26.38
63689;BMP280;54895;40.928;14.480;2023-02-24T13:09:26;101037.59;;;26.87
63689;BMP280;54895;40.928;14.480;2023-02-24T13:14:37;101024.19;;;26.58
63689;BMP280;54895;40.928;14.480;2023-02-24T13:19:39;101039.03;;;26.22
63689;BMP280;54895;40.928;14.480;2023-02-24T13:27:30;101027.97;;;24.99
63689;BMP280;54895;40.928;14.480;2023-02-24T13:30:04;101027.78;;;24.81
63689;BMP280;54895;40.928;14.480;2023-02-24T13:32:35;101024.56;;;24.85
63689;BMP280;54895;40.928;14.480;2023-02-24T13:37:51;101026.59;;;24.71
63689;BMP280;54895;40.928;14.480;2023-02-24T13:45:28;101027.25;;;25.71
63689;BMP280;54895;40.928;14.480;2023-02-24T13:50:23;101014.75;;;25.66
63689;BMP280;54895;40.928;14.480;2023-02-24T13:56:39;101005.94;;;26.47
63689;BMP280;54895;40.928;14.480;2023-02-24T14:02:16;100995.88;;;24.97
63689;BMP280;54895;40.928;14.480;2023-02-24T14:04:54;101007.81;;;24.77
63689;BMP280;54895;40.928;14.480;2023-02-24T14:07:24;101002.66;;;24.83
63689;BMP280;54895;40.928;14.480;2023-02-24T14:09:55;100994.00;;;24.86
63689;BMP280;54895;40.928;14.480;2023-02-24T14:12:25;100998.84;;;25.16
63689;BMP280;54895;40.928;14.480;2023-02-24T14:14:55;100995.13;;;25.10
63689;BMP280;54895;40.928;14.480;2023-02-24T14:17:29;100999.75;;;25.36
63689;BMP280;54895;40.928;14.480;2023-02-24T14:22:51;100993.19;;;24.84
63689;BMP280;54895;40.928;14.480;2023-02-24T14:25:19;100989.44;;;24.91
63689;BMP280;54895;40.928;14.480;2023-02-24T14:27:51;100987.78;;;24.70
63689;BMP280;54895;40.928;14.480;2023-02-24T14:30:30;100968.91;;;24.88
63689;BMP280;54895;40.928;14.480;2023-02-24T14:33:21;100989.09;;;24.56
63689;BMP280;54895;40.928;14.480;2023-02-24T14:35:49;100981.28;;;24.35
63689;BMP280;54895;40.928;14.480;2023-02-24T14:38:56;100988.31;;;24.13
63689;BMP280;54895;40.928;14.480;2023-02-24T14:41:25;100974.97;;;23.65
63689;BMP280;54895;40.928;14.480;2023-02-24T14:43:55;100970.28;;;23.92
63689;BMP280;54895;40.928;14.480;2023-02-24T14:46:24;100952.13;;;23.83
63689;BMP280;54895;40.928;14.480;2023-02-24T14:48:53;100969.97;;;24.00
63689;BMP280;54895;40.928;14.480;2023-02-24T14:51:32;100958.50;;;23.88
63689;BMP280;54895;40.928;14.480;2023-02-24T14:54:13;100949.22;;;23.93
63689;BMP280;54895;40.928;14.480;2023-02-24T14:56:46;100953.06;;;23.88
63689;BMP280;54895;40.928;14.480;2023-02-24T15:02:15;100947.31;;;24.36
63689;BMP280;54895;40.928;14.480;2023-02-24T15:04:45;100953.44;;;24.50
63689;BMP280;54895;40.928;14.480;2023-02-24T15:07:25;100950.75;;;24.23
63689;BMP280;54895;40.928;14.480;2023-02-24T15:09:55;100947.72;;;24.17
63689;BMP280;54895;40.928;14.480;2023-02-24T15:12:36;100941.63;;;23.65
63689;BMP280;54895;40.928;14.480;2023-02-24T15:15:29;100940.94;;;23.26
63689;BMP280;54895;40.928;14.480;2023-02-24T15:18:00;100935.84;;;22.95
63689;BMP280;54895;40.928;14.480;2023-02-24T15:20:35;100928.72;;;23.02
63689;BMP280;54895;40.928;14.480;2023-02-24T15:23:04;100936.28;;;23.03
63689;BMP280;54895;40.928;14.480;2023-02-24T15:25:44;100921.56;;;22.58
63689;BMP280;54895;40.928;14.480;2023-02-24T15:28:28;100923.94;;;22.29
63689;BMP280;54895;40.928;14.480;2023-02-24T15:33:55;100924.81;;;22.68
63689;BMP280;54895;40.928;14.480;2023-02-24T15:36:26;100905.94;;;22.70
63689;BMP280;54895;40.928;14.480;2023-02-24T15:39:03;100913.38;;;22.81
63689;BMP280;54895;40.928;14.480;2023-02-24T15:41:39;100916.91;;;22.72
63689;BMP280;54895;40.928;14.480;2023-02-24T15:47:19;100911.66;;;22.51
63689;BMP280;54895;40.928;14.480;2023-02-24T15:49:48;100905.94;;;22.23
63689;BMP280;54895;40.928;14.480;2023-02-24T15:52:20;100905.69;;;22.19
63689;BMP280;54895;40.928;14.480;2023-02-24T15:54:49;100903.00;;;21.96
63689;BMP280;54895;40.928;14.480;2023-02-24T15:57:17;100887.53;;;21.75
63689;BMP280;54895;40.928;14.480;2023-02-24T15:59:44;100891.41;;;21.84
63689;BMP280;54895;40.928;14.480;2023-02-24T16:02:18;100886.56;;;21.82
63689;BMP280;54895;40.928;14.480;2023-02-24T16:04:46;100878.72;;;21.86
63689;BMP280;54895;40.928;14.480;2023-02-24T16:07:27;100871.03;;;21.60
63689;BMP280;54895;40.928;14.480;2023-02-24T16:09:56;100863.63;;;21.72
63689;BMP280;54895;40.928;14.480;2023-02-24T16:12:30;100863.06;;;21.73
63689;BMP280;54895;40.928;14.480;2023-02-24T16:14:59;100862.81;;;21.25
63689;BMP280;54895;40.928;14.480;2023-02-24T16:17:33;100860.44;;;21.20
63689;BMP280;54895;40.928;14.480;2023-02-24T16:20:01;100830.84;;;20.89
63689;BMP280;54895;40.928;14.480;2023-02-24T16:22:28;100836.28;;;21.01
63689;BMP280;54895;40.928;14.480;2023-02-24T16:24:55;100835.59;;;21.12
63689;BMP280;54895;40.928;14.480;2023-02-24T16:27:22;100827.28;;;20.87
63689;BMP280;54895;40.928;14.480;2023-02-24T16:29:51;100819.81;;;20.76
63689;BMP280;54895;40.928;14.480;2023-02-24T16:32:18;100821.22;;;20.77
63689;BMP280;54895;40.928;14.480;2023-02-24T16:34:48;100798.22;;;20.55
63689;BMP280;54895;40.928;14.480;2023-02-24T16:37:26;100815.81;;;20.77
63689;BMP280;54895;40.928;14.480;2023-02-24T16:39:57;100817.72;;;20.74
63689;BMP280;54895;40.928;14.480;2023-02-24T16:42:24;100821.59;;;21.04
63689;BMP280;54895;40.928;14.480;2023-02-24T16:44:51;100814.59;;;21.33
63689;BMP280;54895;40.928;14.480;2023-02-24T16:47:21;100810.69;;;21.25
63689;BMP280;54895;40.928;14.480;2023-02-24T16:49:50;100823.25;;;21.09
63689;BMP280;54895;40.928;14.480;2023-02-24T16:52:20;100835.19;;;20.94
63689;BMP280;54895;40.928;14.480;2023-02-24T16:54:48;100832.97;;;20.70